createdAt,value
2017-01-28T00:00:59.250Z,4.52
2017-01-28T00:01:59.639Z,4.52
2017-01-28T00:02:58.811Z,4.54
2017-01-28T00:03:59.174Z,4.46
2017-01-28T00:04:59.598Z,4.46
2017-01-28T00:05:58.717Z,4.34
2017-01-28T00:06:59.109Z,4.34
2017-01-28T00:07:59.064Z,4.32
2017-01-28T00:08:59.455Z,4.29
2017-01-28T00:09:59.037Z,4.29
2017-01-28T00:10:59.006Z,4.22
2017-01-28T00:11:58.967Z,4.21
2017-01-28T00:12:59.354Z,4.4
2017-01-28T00:13:59.334Z,4.34
2017-01-28T00:14:59.296Z,4.41
2017-01-28T00:15:59.329Z,4.64
2017-01-28T00:16:59.252Z,4.58
2017-01-28T00:17:59.276Z,4.54
2017-01-28T00:18:58.799Z,4.59
2017-01-28T00:19:58.772Z,4.64
2017-01-28T00:20:59.150Z,4.68
2017-01-28T00:21:58.727Z,4.62
2017-01-28T00:22:59.100Z,4.61
2017-01-28T00:23:58.729Z,4.62
2017-01-28T00:24:58.238Z,4.65
2017-01-28T00:25:59.130Z,4.68
2017-01-28T00:26:58.615Z,4.64
2017-01-28T00:27:58.571Z,4.67
2017-01-28T00:28:58.568Z,4.61
2017-01-28T00:29:59.007Z,4.76
2017-01-28T00:30:58.498Z,4.75
2017-01-28T00:31:58.507Z,4.83
2017-01-28T00:32:58.455Z,4.77
2017-01-28T00:33:58.835Z,4.76
2017-01-28T00:34:58.396Z,4.8
2017-01-28T00:35:58.859Z,4.84
2017-01-28T00:36:58.825Z,4.76
2017-01-28T00:37:57.943Z,4.75
2017-01-28T00:38:58.703Z,4.84
2017-01-28T00:39:58.343Z,4.8
2017-01-28T00:40:58.241Z,4.85
2017-01-28T00:41:58.308Z,4.87
2017-01-28T00:42:58.601Z,4.83
2017-01-28T00:43:58.650Z,4.87
2017-01-28T00:44:58.590Z,4.96
2017-01-28T00:45:58.130Z,4.98
2017-01-28T00:46:57.709Z,4.98
2017-01-28T00:47:57.668Z,4.98
2017-01-28T00:48:57.647Z,4.96
2017-01-28T00:49:58.427Z,4.94
2017-01-28T00:50:58.004Z,4.98
2017-01-28T00:51:58.376Z,5.05
2017-01-28T00:52:58.355Z,5.02
2017-01-28T00:53:58.389Z,4.92
2017-01-28T00:54:58.320Z,4.92
2017-01-28T00:55:58.290Z,5.1
2017-01-28T00:56:57.875Z,5.13
2017-01-28T00:57:57.818Z,5.16
2017-01-28T00:58:57.845Z,5.05
2017-01-28T00:59:57.365Z,5.14
2017-01-28T01:00:58.226Z,5.14
2017-01-28T01:01:57.720Z,5.11
2017-01-28T01:02:58.131Z,5.02
2017-01-28T01:03:57.692Z,5.02
2017-01-28T01:04:57.656Z,5.13
2017-01-28T01:05:57.620Z,5.06
2017-01-28T01:06:57.668Z,5.09
2017-01-28T01:07:58.048Z,5.1
2017-01-28T01:08:57.967Z,5.09
2017-01-28T01:09:57.527Z,5.06
2017-01-28T01:10:57.913Z,5.1
2017-01-28T01:11:57.502Z,5.05
2017-01-28T01:12:57.850Z,4.96
2017-01-28T01:13:57.824Z,5.02
2017-01-28T01:14:57.402Z,5.1
2017-01-28T01:15:57.373Z,5.09
2017-01-28T01:16:56.947Z,5.09
2017-01-28T01:17:57.787Z,5.03
2017-01-28T01:18:57.704Z,5.05
2017-01-28T01:19:56.871Z,4.94
2017-01-28T01:20:57.244Z,4.91
2017-01-28T01:21:57.639Z,4.87
2017-01-28T01:22:57.199Z,4.75
2017-01-28T01:23:57.581Z,4.76
2017-01-28T01:24:56.750Z,4.61
2017-01-28T01:25:57.138Z,4.68
2017-01-28T01:26:57.517Z,4.55
2017-01-28T01:27:57.515Z,4.55
2017-01-28T01:28:56.649Z,4.59
2017-01-28T01:29:57.031Z,4.55
2017-01-28T01:30:57.399Z,4.59
2017-01-28T01:31:57.394Z,4.55
2017-01-28T01:32:57.343Z,4.57
2017-01-28T01:33:56.521Z,4.64
2017-01-28T01:34:56.494Z,4.77
2017-01-28T01:35:57.292Z,4.76
2017-01-28T01:36:57.254Z,4.77
2017-01-28T01:37:57.231Z,4.67
2017-01-28T01:38:57.209Z,4.64
2017-01-28T01:39:56.780Z,4.65
2017-01-28T01:40:56.748Z,4.62
2017-01-28T01:41:56.731Z,4.7
2017-01-28T01:42:56.704Z,4.54
2017-01-28T01:43:57.108Z,4.52
2017-01-28T01:44:57.107Z,4.54
2017-01-28T01:45:56.627Z,4.58
2017-01-28T01:46:56.609Z,4.65
2017-01-28T01:47:56.577Z,4.59
2017-01-28T01:48:56.669Z,4.57
2017-01-28T01:49:56.535Z,4.55
2017-01-28T01:50:56.926Z,4.49
2017-01-28T01:51:56.957Z,4.61
2017-01-28T01:52:56.953Z,4.54
2017-01-28T01:53:56.493Z,4.46
2017-01-28T01:54:56.837Z,4.55
2017-01-28T01:55:55.980Z,4.59
2017-01-28T01:56:56.441Z,4.65
2017-01-28T01:57:56.730Z,4.73
2017-01-28T01:58:56.729Z,4.8
2017-01-28T01:59:56.306Z,4.72
2017-01-28T02:00:56.698Z,4.94
2017-01-28T02:01:56.728Z,4.77
2017-01-28T02:02:56.607Z,4.84
2017-01-28T02:03:55.798Z,4.92
2017-01-28T02:04:56.159Z,4.98
2017-01-28T02:05:56.134Z,4.98
2017-01-28T02:06:56.096Z,4.91
2017-01-28T02:07:56.073Z,4.96
2017-01-28T02:08:56.049Z,5.01
2017-01-28T02:09:56.483Z,4.98
2017-01-28T02:10:56.413Z,5.03
2017-01-28T02:11:56.385Z,5.03
2017-01-28T02:12:56.345Z,5.1
2017-01-28T02:13:55.924Z,5.06
2017-01-28T02:14:56.299Z,5.06
2017-01-28T02:15:55.874Z,5.01
2017-01-28T02:16:55.856Z,5.01
2017-01-28T02:17:56.290Z,4.98
2017-01-28T02:18:55.801Z,4.83
2017-01-28T02:19:55.789Z,4.76
2017-01-28T02:20:56.203Z,4.77
2017-01-28T02:21:55.741Z,4.68
2017-01-28T02:22:56.107Z,4.57
2017-01-28T02:23:55.269Z,4.41
2017-01-28T02:24:55.650Z,4.4
2017-01-28T02:25:55.628Z,4.5
2017-01-28T02:26:56.097Z,4.49
2017-01-28T02:27:55.984Z,4.57
2017-01-28T02:28:56.095Z,4.54
2017-01-28T02:29:55.539Z,4.67
2017-01-28T02:30:55.914Z,4.65
2017-01-28T02:31:55.480Z,4.64
2017-01-28T02:32:55.450Z,4.64
2017-01-28T02:33:55.421Z,4.68
2017-01-28T02:34:54.999Z,4.65
2017-01-28T02:35:55.378Z,4.77
2017-01-28T02:36:55.901Z,4.67
2017-01-28T02:37:55.346Z,4.75
2017-01-28T02:38:55.309Z,4.76
2017-01-28T02:39:55.682Z,4.77
2017-01-28T02:40:55.252Z,4.77
2017-01-28T02:41:55.235Z,4.76
2017-01-28T02:42:55.246Z,4.84
2017-01-28T02:43:55.581Z,4.79
2017-01-28T02:44:55.157Z,4.79
2017-01-28T02:45:55.128Z,4.83
2017-01-28T02:46:55.098Z,4.8
2017-01-28T02:47:55.487Z,4.83
2017-01-28T02:48:55.454Z,4.79
2017-01-28T02:49:55.028Z,4.79
2017-01-28T02:50:55.007Z,4.73
2017-01-28T02:51:54.975Z,4.65
2017-01-28T02:52:55.353Z,4.68
2017-01-28T02:53:54.922Z,4.55
2017-01-28T02:54:54.626Z,4.58
2017-01-28T02:55:55.278Z,4.43
2017-01-28T02:56:54.857Z,4.41
2017-01-28T02:57:55.221Z,4.34
2017-01-28T02:58:55.202Z,4.31
2017-01-28T02:59:54.831Z,4.19
2017-01-28T03:00:54.412Z,4.21
2017-01-28T03:01:55.130Z,4.22
2017-01-28T03:02:54.705Z,4.1
2017-01-28T03:03:54.676Z,4.15
2017-01-28T03:04:54.645Z,4.18
2017-01-28T03:05:55.037Z,4.13
2017-01-28T03:06:54.996Z,4.23
2017-01-28T03:07:54.580Z,4.1
2017-01-28T03:08:54.961Z,4.19
2017-01-28T03:09:54.136Z,4.16
2017-01-28T03:10:54.899Z,4.22
2017-01-28T03:11:54.492Z,4.22
2017-01-28T03:12:54.867Z,4.18
2017-01-28T03:13:54.925Z,4.18
2017-01-28T03:14:54.395Z,4.19
2017-01-28T03:15:54.506Z,4.18
2017-01-28T03:16:54.754Z,4.21
2017-01-28T03:17:54.318Z,4.18
2017-01-28T03:18:54.304Z,4.04
2017-01-28T03:19:54.679Z,4.04
2017-01-28T03:20:54.252Z,3.89
2017-01-28T03:21:54.634Z,3.93
2017-01-28T03:22:54.198Z,3.95
2017-01-28T03:23:54.181Z,3.89
2017-01-28T03:24:53.741Z,3.97
2017-01-28T03:25:53.720Z,3.97
2017-01-28T03:26:53.717Z,3.95
2017-01-28T03:27:54.477Z,3.93
2017-01-28T03:28:54.088Z,3.89
2017-01-28T03:29:54.017Z,3.74
2017-01-28T03:30:54.004Z,3.93
2017-01-28T03:31:53.962Z,3.95
2017-01-28T03:32:53.941Z,3.93
2017-01-28T03:33:53.919Z,3.9
2017-01-28T03:34:54.398Z,3.93
2017-01-28T03:35:53.468Z,3.92
2017-01-28T03:36:54.342Z,3.95
2017-01-28T03:37:53.815Z,3.92
2017-01-28T03:38:54.196Z,3.83
2017-01-28T03:39:53.757Z,3.8
2017-01-28T03:40:54.152Z,3.9
2017-01-28T03:41:53.716Z,3.89
2017-01-28T03:42:53.692Z,3.83
2017-01-28T03:43:53.648Z,3.8
2017-01-28T03:44:54.042Z,3.78
2017-01-28T03:45:54.031Z,3.71
2017-01-28T03:46:53.582Z,3.62
2017-01-28T03:47:53.973Z,3.67
2017-01-28T03:48:53.938Z,3.71
2017-01-28T03:49:53.947Z,3.72
2017-01-28T03:50:53.883Z,3.67
2017-01-28T03:51:53.865Z,3.54
2017-01-28T03:52:53.446Z,3.68
2017-01-28T03:53:53.405Z,3.62
2017-01-28T03:54:52.975Z,3.61
2017-01-28T03:55:53.784Z,3.56
2017-01-28T03:56:53.327Z,3.64
2017-01-28T03:57:53.293Z,3.62
2017-01-28T03:58:53.288Z,3.61
2017-01-28T03:59:53.658Z,3.67
2017-01-28T04:00:53.623Z,3.67
2017-01-28T04:01:53.193Z,3.64
2017-01-28T04:02:53.580Z,3.65
2017-01-28T04:03:53.146Z,3.67
2017-01-28T04:04:53.530Z,3.62
2017-01-28T04:05:53.099Z,3.6
2017-01-28T04:06:53.060Z,3.53
2017-01-28T04:07:53.049Z,3.49
2017-01-28T04:08:53.014Z,3.54
2017-01-28T04:09:52.983Z,3.46
2017-01-28T04:10:52.976Z,3.5
2017-01-28T04:11:53.376Z,3.46
2017-01-28T04:12:52.916Z,3.37
2017-01-28T04:13:53.295Z,3.5
2017-01-28T04:14:52.867Z,3.49
2017-01-28T04:15:52.834Z,3.49
2017-01-28T04:16:52.800Z,3.56
2017-01-28T04:17:52.420Z,3.43
2017-01-28T04:18:52.840Z,3.31
2017-01-28T04:19:52.383Z,3.35
2017-01-28T04:20:53.111Z,3.23
2017-01-28T04:21:53.091Z,3.24
2017-01-28T04:22:52.714Z,3.19
2017-01-28T04:23:52.229Z,3.06
2017-01-28T04:24:52.628Z,3.15
2017-01-28T04:25:52.570Z,3.13
2017-01-28T04:26:52.552Z,3.17
2017-01-28T04:27:52.517Z,3.19
2017-01-28T04:28:52.999Z,3.19
2017-01-28T04:29:52.875Z,3.25
2017-01-28T04:30:52.940Z,3.23
2017-01-28T04:31:52.877Z,3.16
2017-01-28T04:32:52.799Z,3.07
2017-01-28T04:33:52.384Z,3.19
2017-01-28T04:34:52.345Z,3.21
2017-01-28T04:35:52.314Z,3.24
2017-01-28T04:36:52.693Z,3.17
2017-01-28T04:37:52.367Z,3.17
2017-01-28T04:38:52.649Z,3.24
2017-01-28T04:39:52.273Z,3.33
2017-01-28T04:40:52.601Z,3.33
2017-01-28T04:41:52.160Z,3.28
2017-01-28T04:42:52.540Z,3.43
2017-01-28T04:43:52.159Z,3.5
2017-01-28T04:44:52.090Z,3.44
2017-01-28T04:45:52.199Z,3.57
2017-01-28T04:46:52.034Z,3.53
2017-01-28T04:47:52.408Z,3.57
2017-01-28T04:48:51.985Z,3.65
2017-01-28T04:49:52.368Z,3.79
2017-01-28T04:50:51.917Z,3.8
2017-01-28T04:51:51.906Z,3.8
2017-01-28T04:52:52.038Z,3.92
2017-01-28T04:53:51.961Z,3.9
2017-01-28T04:54:51.827Z,3.95
2017-01-28T04:55:52.203Z,3.97
2017-01-28T04:56:52.374Z,3.98
2017-01-28T04:57:51.752Z,4.03
2017-01-28T04:58:51.313Z,4.04
2017-01-28T04:59:51.692Z,4.07
2017-01-28T05:00:52.091Z,4.1
2017-01-28T05:01:51.645Z,4.05
2017-01-28T05:02:51.619Z,4.13
2017-01-28T05:03:51.994Z,4.25
2017-01-28T05:04:51.560Z,4.25
2017-01-28T05:05:51.943Z,4.28
2017-01-28T05:06:51.507Z,4.37
2017-01-28T05:07:51.894Z,4.43
2017-01-28T05:08:51.467Z,4.44
2017-01-28T05:09:51.455Z,4.49
2017-01-28T05:10:51.006Z,4.46
2017-01-28T05:11:50.987Z,4.5
2017-01-28T05:12:51.755Z,4.49
2017-01-28T05:13:51.443Z,4.43
2017-01-28T05:14:51.325Z,4.44
2017-01-28T05:15:51.284Z,4.57
2017-01-28T05:16:51.674Z,4.61
2017-01-28T05:17:51.652Z,4.55
2017-01-28T05:18:51.623Z,4.57
2017-01-28T05:19:51.179Z,4.62
2017-01-28T05:20:50.761Z,4.67
2017-01-28T05:21:51.539Z,4.65
2017-01-28T05:22:51.505Z,4.62
2017-01-28T05:23:50.673Z,4.65
2017-01-28T05:24:51.454Z,4.67
2017-01-28T05:25:50.627Z,4.67
2017-01-28T05:26:51.008Z,4.62
2017-01-28T05:27:51.386Z,4.58
2017-01-28T05:28:50.953Z,4.65
2017-01-28T05:29:50.934Z,4.65
2017-01-28T05:30:51.305Z,4.7
2017-01-28T05:31:51.307Z,4.65
2017-01-28T05:32:51.263Z,4.49
2017-01-28T05:33:50.830Z,4.57
2017-01-28T05:34:50.799Z,4.5
2017-01-28T05:35:50.781Z,4.39
2017-01-28T05:36:50.751Z,4.37
2017-01-28T05:37:50.735Z,4.41
2017-01-28T05:38:51.100Z,4.41
2017-01-28T05:39:51.083Z,4.34
2017-01-28T05:40:50.247Z,4.4
2017-01-28T05:41:50.229Z,4.29
2017-01-28T05:42:51.005Z,4.32
2017-01-28T05:43:51.048Z,4.34
2017-01-28T05:44:50.545Z,4.41
2017-01-28T05:45:50.631Z,4.4
2017-01-28T05:46:50.095Z,4.41
2017-01-28T05:47:50.485Z,4.39
2017-01-28T05:48:50.866Z,4.41
2017-01-28T05:49:50.481Z,4.44
2017-01-28T05:50:50.801Z,4.46
2017-01-28T05:51:50.384Z,4.41
2017-01-28T05:52:50.753Z,4.47
2017-01-28T05:53:50.322Z,4.52
2017-01-28T05:54:50.700Z,4.47
2017-01-28T05:55:50.277Z,4.44
2017-01-28T05:56:50.251Z,4.49
2017-01-28T05:57:49.824Z,4.47
2017-01-28T05:58:50.594Z,4.46
2017-01-28T05:59:50.179Z,4.4
2017-01-28T06:00:50.151Z,4.43
2017-01-28T06:01:50.567Z,4.34
2017-01-28T06:02:50.099Z,4.36
2017-01-28T06:03:49.669Z,4.41
2017-01-28T06:04:50.141Z,4.41
2017-01-28T06:05:50.028Z,4.47
2017-01-28T06:06:49.992Z,4.46
2017-01-28T06:07:49.966Z,4.49
2017-01-28T06:08:50.366Z,4.55
2017-01-28T06:09:50.321Z,4.54
2017-01-28T06:10:49.896Z,4.52
2017-01-28T06:11:50.277Z,4.52
2017-01-28T06:12:49.453Z,4.52
2017-01-28T06:13:50.302Z,4.5
2017-01-28T06:14:49.802Z,4.54
2017-01-28T06:15:50.279Z,4.7
2017-01-28T06:16:49.344Z,4.68
2017-01-28T06:17:49.722Z,4.64
2017-01-28T06:18:49.697Z,4.65
2017-01-28T06:19:50.074Z,4.68
2017-01-28T06:20:49.638Z,4.7
2017-01-28T06:21:49.218Z,4.62
2017-01-28T06:22:49.993Z,4.67
2017-01-28T06:23:49.983Z,4.58
2017-01-28T06:24:49.147Z,4.67
2017-01-28T06:25:49.917Z,4.64
2017-01-28T06:26:49.493Z,4.61
2017-01-28T06:27:49.466Z,4.64
2017-01-28T06:28:49.852Z,4.64
2017-01-28T06:29:49.424Z,4.65
2017-01-28T06:30:49.446Z,4.67
2017-01-28T06:31:49.769Z,4.65
2017-01-28T06:32:49.347Z,4.7
2017-01-28T06:33:49.768Z,4.67
2017-01-28T06:34:48.894Z,4.7
2017-01-28T06:35:49.271Z,4.61
2017-01-28T06:36:49.250Z,4.57
2017-01-28T06:37:49.610Z,4.58
2017-01-28T06:38:48.802Z,4.55
2017-01-28T06:39:49.569Z,4.54
2017-01-28T06:40:49.139Z,4.57
2017-01-28T06:41:49.118Z,4.59
2017-01-28T06:42:49.484Z,4.67
2017-01-28T06:43:49.478Z,4.7
2017-01-28T06:44:49.047Z,4.67
2017-01-28T06:45:49.015Z,4.67
2017-01-28T06:46:49.000Z,4.67
2017-01-28T06:47:48.955Z,4.64
2017-01-28T06:48:49.343Z,4.64
2017-01-28T06:49:48.904Z,4.67
2017-01-28T06:50:49.353Z,4.64
2017-01-28T06:51:49.263Z,4.68
2017-01-28T06:52:48.830Z,4.67
2017-01-28T06:53:48.823Z,4.75
2017-01-28T06:54:48.861Z,4.62
2017-01-28T06:55:48.751Z,4.64
2017-01-28T06:56:48.790Z,4.57
2017-01-28T06:57:49.121Z,4.65
2017-01-28T06:58:49.185Z,4.7
2017-01-28T06:59:48.672Z,4.7
2017-01-28T07:00:48.291Z,4.64
2017-01-28T07:01:48.623Z,4.68
2017-01-28T07:02:48.647Z,4.68
2017-01-28T07:03:48.989Z,4.64
2017-01-28T07:04:48.524Z,4.62
2017-01-28T07:05:48.925Z,4.72
2017-01-28T07:06:48.480Z,4.64
2017-01-28T07:07:48.477Z,4.68
2017-01-28T07:08:48.843Z,4.73
2017-01-28T07:09:48.430Z,4.68
2017-01-28T07:10:48.391Z,4.52
2017-01-28T07:11:48.430Z,4.47
2017-01-28T07:12:48.335Z,4.46
2017-01-28T07:13:48.719Z,4.5
2017-01-28T07:14:48.286Z,4.41
2017-01-28T07:15:48.671Z,4.46
2017-01-28T07:16:48.649Z,4.43
2017-01-28T07:17:48.220Z,4.54
2017-01-28T07:18:48.176Z,4.44
2017-01-28T07:19:48.558Z,4.29
2017-01-28T07:20:48.547Z,4.32
2017-01-28T07:21:48.500Z,4.28
2017-01-28T07:22:48.107Z,4.31
2017-01-28T07:23:48.057Z,4.32
2017-01-28T07:24:48.035Z,4.22
2017-01-28T07:25:47.589Z,4.19
2017-01-28T07:26:47.971Z,4.25
2017-01-28T07:27:47.953Z,4.21
2017-01-28T07:28:47.540Z,4.31
2017-01-28T07:29:48.302Z,4.29
2017-01-28T07:30:48.331Z,4.49
2017-01-28T07:31:47.853Z,4.46
2017-01-28T07:32:48.240Z,4.58
2017-01-28T07:33:48.211Z,4.55
2017-01-28T07:34:47.809Z,4.64
2017-01-28T07:35:47.746Z,4.64
2017-01-28T07:36:48.178Z,4.57
2017-01-28T07:37:47.318Z,4.52
2017-01-28T07:38:47.718Z,4.52
2017-01-28T07:39:47.652Z,4.57
2017-01-28T07:40:47.625Z,4.7
2017-01-28T07:41:47.196Z,4.73
2017-01-28T07:42:47.585Z,4.57
2017-01-28T07:43:47.545Z,4.65
2017-01-28T07:44:47.923Z,4.68
2017-01-28T07:45:47.902Z,4.67
2017-01-28T07:46:47.479Z,4.64
2017-01-28T07:47:47.852Z,4.64
2017-01-28T07:48:47.415Z,4.64
2017-01-28T07:49:47.801Z,4.77
2017-01-28T07:50:47.771Z,4.7
2017-01-28T07:51:47.761Z,4.75
2017-01-28T07:52:47.329Z,4.67
2017-01-28T07:53:47.699Z,4.79
2017-01-28T07:54:47.269Z,4.76
2017-01-28T07:55:46.840Z,4.8
2017-01-28T07:56:47.631Z,4.76
2017-01-28T07:57:47.601Z,4.83
2017-01-28T07:58:47.179Z,4.76
2017-01-28T07:59:47.163Z,4.88
2017-01-28T08:00:47.527Z,4.77
2017-01-28T08:01:47.500Z,4.79
2017-01-28T08:02:47.085Z,4.83
2017-01-28T08:03:46.650Z,4.79
2017-01-28T08:04:47.450Z,4.75
2017-01-28T08:05:47.403Z,4.84
2017-01-28T08:06:46.974Z,4.88
2017-01-28T08:07:47.351Z,4.96
2017-01-28T08:08:46.638Z,5.11
2017-01-28T08:09:46.904Z,5.37
2017-01-28T08:10:47.289Z,5.6
2017-01-28T08:11:46.861Z,5.86
2017-01-28T08:12:47.230Z,6.11
2017-01-28T08:13:47.209Z,6.27
2017-01-28T08:14:47.190Z,6.27
2017-01-28T08:15:47.159Z,6.13
2017-01-28T08:16:46.736Z,6.04
2017-01-28T08:17:47.117Z,6
2017-01-28T08:18:47.093Z,5.83
2017-01-28T08:19:46.714Z,5.78
2017-01-28T08:20:46.635Z,5.81
2017-01-28T08:21:47.025Z,5.8
2017-01-28T08:22:46.635Z,5.78
2017-01-28T08:23:46.635Z,5.85
2017-01-28T08:24:46.545Z,5.75
2017-01-28T08:25:46.511Z,5.77
2017-01-28T08:26:46.092Z,5.78
2017-01-28T08:27:46.467Z,5.77
2017-01-28T08:28:46.461Z,5.75
2017-01-28T08:29:46.428Z,5.73
2017-01-28T08:30:46.394Z,5.8
2017-01-28T08:31:46.787Z,5.67
2017-01-28T08:32:46.348Z,5.8
2017-01-28T08:33:46.327Z,5.81
2017-01-28T08:34:46.707Z,5.75
2017-01-28T08:35:46.276Z,5.65
2017-01-28T08:36:46.710Z,5.57
2017-01-28T08:37:46.230Z,5.62
2017-01-28T08:38:45.816Z,5.57
2017-01-28T08:39:46.173Z,5.65
2017-01-28T08:40:46.149Z,5.63
2017-01-28T08:41:46.142Z,5.65
2017-01-28T08:42:46.626Z,5.7
2017-01-28T08:43:46.491Z,5.68
2017-01-28T08:44:46.461Z,5.71
2017-01-28T08:45:46.441Z,5.5
2017-01-28T08:46:46.023Z,5.44
2017-01-28T08:47:46.003Z,5.49
2017-01-28T08:48:45.974Z,5.49
2017-01-28T08:49:45.950Z,5.47
2017-01-28T08:50:45.512Z,5.57
2017-01-28T08:51:45.893Z,5.57
2017-01-28T08:52:45.864Z,5.6
2017-01-28T08:53:46.268Z,5.62
2017-01-28T08:54:45.824Z,5.47
2017-01-28T08:55:46.212Z,5.41
2017-01-28T08:56:45.760Z,5.49
2017-01-28T08:57:45.755Z,5.47
2017-01-28T08:58:46.122Z,5.59
2017-01-28T08:59:45.716Z,5.62
2017-01-28T09:00:45.682Z,5.63
2017-01-28T09:01:45.655Z,5.52
2017-01-28T09:02:45.212Z,5.52
2017-01-28T09:03:45.188Z,5.5
2017-01-28T09:04:45.180Z,5.49
2017-01-28T09:05:46.055Z,5.7
2017-01-28T09:06:45.533Z,5.67
2017-01-28T09:07:45.909Z,5.63
2017-01-28T09:08:45.884Z,5.67
2017-01-28T09:09:45.460Z,5.7
2017-01-28T09:10:45.430Z,5.67
2017-01-28T09:11:45.828Z,5.78
2017-01-28T09:12:45.797Z,5.92
2017-01-28T09:13:45.775Z,5.95
2017-01-28T09:14:45.742Z,6.03
2017-01-28T09:15:45.375Z,6.08
2017-01-28T09:16:45.285Z,6.3
2017-01-28T09:17:45.697Z,6.36
2017-01-28T09:18:45.649Z,6.4
2017-01-28T09:19:45.629Z,6.35
2017-01-28T09:20:45.592Z,6.35
2017-01-28T09:21:45.583Z,6.41
2017-01-28T09:22:45.555Z,6.44
2017-01-28T09:23:45.144Z,6.48
2017-01-28T09:24:45.101Z,6.52
2017-01-28T09:25:45.104Z,6.59
2017-01-28T09:26:45.061Z,6.55
2017-01-28T09:27:45.449Z,6.73
2017-01-28T09:28:45.409Z,6.75
2017-01-28T09:29:44.992Z,6.86
2017-01-28T09:30:44.958Z,6.86
2017-01-28T09:31:45.368Z,6.93
2017-01-28T09:32:45.332Z,6.96
2017-01-28T09:33:45.290Z,7.06
2017-01-28T09:34:44.862Z,7.05
2017-01-28T09:35:44.923Z,7.12
2017-01-28T09:36:44.825Z,7.16
2017-01-28T09:37:44.839Z,7.12
2017-01-28T09:38:44.782Z,7.19
2017-01-28T09:39:45.173Z,7.21
2017-01-28T09:40:45.152Z,7.29
2017-01-28T09:41:45.112Z,7.31
2017-01-28T09:42:44.693Z,7.39
2017-01-28T09:43:45.065Z,7.35
2017-01-28T09:44:45.049Z,7.47
2017-01-28T09:45:44.717Z,7.41
2017-01-28T09:46:44.998Z,7.52
2017-01-28T09:47:44.580Z,7.55
2017-01-28T09:48:44.967Z,7.57
2017-01-28T09:49:44.524Z,7.7
2017-01-28T09:50:44.558Z,7.59
2017-01-28T09:51:44.888Z,7.41
2017-01-28T09:52:44.461Z,7.48
2017-01-28T09:53:44.866Z,7.57
2017-01-28T09:54:44.432Z,7.56
2017-01-28T09:55:44.805Z,7.68
2017-01-28T09:56:44.781Z,7.67
2017-01-28T09:57:44.755Z,7.76
2017-01-28T09:58:44.734Z,7.72
2017-01-28T09:59:44.723Z,7.56
2017-01-28T10:00:44.292Z,7.55
2017-01-28T10:01:44.672Z,7.78
2017-01-28T10:02:44.237Z,7.78
2017-01-28T10:03:44.250Z,8.06
2017-01-28T10:04:44.200Z,8.32
2017-01-28T10:05:44.589Z,8.37
2017-01-28T10:06:43.754Z,8.76
2017-01-28T10:07:44.536Z,9.06
2017-01-28T10:08:44.102Z,9.27
2017-01-28T10:09:44.488Z,9.5
2017-01-28T10:10:43.678Z,9.95
2017-01-28T10:11:44.046Z,10.03
2017-01-28T10:12:44.021Z,10.1
2017-01-28T10:13:44.019Z,10
2017-01-28T10:14:43.990Z,10.1
2017-01-28T10:15:44.375Z,9.92
2017-01-28T10:16:43.984Z,9.87
2017-01-28T10:17:43.532Z,9.29
2017-01-28T10:18:44.324Z,9.1
2017-01-28T10:19:44.330Z,9.19
2017-01-28T10:20:44.292Z,9.14
2017-01-28T10:21:44.260Z,9.31
2017-01-28T10:22:43.840Z,9.14
2017-01-28T10:23:44.228Z,9.53
2017-01-28T10:24:44.200Z,10.18
2017-01-28T10:25:43.767Z,11.13
2017-01-28T10:26:43.749Z,11.14
2017-01-28T10:27:43.335Z,11.13
2017-01-28T10:28:43.305Z,12.02
2017-01-28T10:29:43.707Z,12.39
2017-01-28T10:30:44.085Z,12.3
2017-01-28T10:31:43.674Z,12.07
2017-01-28T10:32:43.243Z,12.35
2017-01-28T10:33:43.622Z,12.3
2017-01-28T10:34:44.040Z,12.4
2017-01-28T10:35:43.195Z,12.3
2017-01-28T10:36:43.991Z,13.04
2017-01-28T10:37:43.973Z,12.97
2017-01-28T10:38:43.539Z,12.78
2017-01-28T10:39:43.528Z,13.11
2017-01-28T10:40:43.955Z,13.21
2017-01-28T10:41:43.502Z,12.86
2017-01-28T10:42:43.885Z,12.97
2017-01-28T10:43:43.932Z,12.9
2017-01-28T10:44:43.460Z,12.79
2017-01-28T10:45:43.846Z,12.05
2017-01-28T10:46:43.419Z,11.89
2017-01-28T10:47:42.996Z,11.94
2017-01-28T10:48:43.790Z,11.98
2017-01-28T10:49:43.362Z,11.87
2017-01-28T10:50:43.346Z,11.48
2017-01-28T10:51:43.351Z,11.1
2017-01-28T10:52:43.731Z,11.33
2017-01-28T10:53:43.311Z,11.53
2017-01-28T10:54:43.309Z,11.21
2017-01-28T10:55:43.319Z,11.11
2017-01-28T10:56:43.263Z,11.08
2017-01-28T10:57:42.836Z,11.13
2017-01-28T10:58:43.218Z,11.18
2017-01-28T10:59:43.627Z,11.28
2017-01-28T11:00:43.196Z,10.89
2017-01-28T11:01:43.176Z,10.84
2017-01-28T11:02:42.745Z,10.99
2017-01-28T11:03:43.140Z,10.9
2017-01-28T11:04:43.127Z,10.78
2017-01-28T11:05:43.503Z,10.8
2017-01-28T11:06:43.487Z,10.92
2017-01-28T11:07:43.472Z,10.69
2017-01-28T11:08:42.642Z,10.53
2017-01-28T11:09:43.025Z,10.55
2017-01-28T11:10:43.015Z,10.4
2017-01-28T11:11:42.987Z,10.36
2017-01-28T11:12:42.960Z,10.34
2017-01-28T11:13:43.060Z,10.52
2017-01-28T11:14:42.940Z,10.74
2017-01-28T11:15:42.907Z,10.92
2017-01-28T11:16:42.887Z,11.23
2017-01-28T11:17:43.270Z,11.64
2017-01-28T11:18:42.864Z,12.09
2017-01-28T11:19:43.245Z,12.61
2017-01-28T11:20:42.871Z,13.06
2017-01-28T11:21:42.814Z,13.44
2017-01-28T11:22:42.804Z,13.6
2017-01-28T11:23:43.182Z,14.26
2017-01-28T11:24:43.162Z,14.72
2017-01-28T11:25:42.732Z,14.55
2017-01-28T11:26:42.710Z,14.6
2017-01-28T11:27:42.690Z,14.38
2017-01-28T11:28:42.690Z,14.38
2017-01-28T11:29:42.660Z,14.05
2017-01-28T11:30:42.245Z,13.75
2017-01-28T11:31:42.277Z,13.81
2017-01-28T11:32:43.018Z,13.92
2017-01-28T11:33:42.657Z,13.78
2017-01-28T11:34:42.745Z,13.84
2017-01-28T11:35:42.616Z,13.26
2017-01-28T11:36:42.950Z,12.97
2017-01-28T11:37:42.604Z,13.16
2017-01-28T11:38:42.913Z,13
2017-01-28T11:39:42.892Z,12.85
2017-01-28T11:40:42.480Z,12.79
2017-01-28T11:41:42.452Z,12.6
2017-01-28T11:42:42.885Z,12.74
2017-01-28T11:43:42.423Z,12.94
2017-01-28T11:44:42.407Z,12.7
2017-01-28T11:45:42.896Z,12.6
2017-01-28T11:46:42.908Z,12.79
2017-01-28T11:47:42.804Z,12.64
2017-01-28T11:48:42.334Z,12.79
2017-01-28T11:49:42.776Z,13.38
2017-01-28T11:50:42.786Z,13.49
2017-01-28T11:51:42.791Z,13.63
2017-01-28T11:52:42.344Z,13.4
2017-01-28T11:53:42.660Z,13.65
2017-01-28T11:54:42.683Z,13.96
2017-01-28T11:55:42.623Z,13.93
2017-01-28T11:56:42.281Z,13.81
2017-01-28T11:57:42.182Z,13.96
2017-01-28T11:58:42.608Z,14.15
2017-01-28T11:59:42.160Z,13.96
2017-01-28T12:00:42.538Z,13.62
2017-01-28T12:01:42.111Z,13.74
2017-01-28T12:02:42.199Z,13.59
2017-01-28T12:03:42.126Z,13.03
2017-01-28T12:04:42.479Z,13.11
2017-01-28T12:05:42.057Z,13.1
2017-01-28T12:06:42.037Z,13.01
2017-01-28T12:07:42.477Z,13.03
2017-01-28T12:08:42.403Z,12.88
2017-01-28T12:09:41.576Z,12.64
2017-01-28T12:10:42.372Z,12.45
2017-01-28T12:11:41.942Z,12.17
2017-01-28T12:12:41.931Z,12.25
2017-01-28T12:13:41.907Z,12.23
2017-01-28T12:14:42.292Z,11.87
2017-01-28T12:15:41.880Z,11.99
2017-01-28T12:16:41.856Z,11.89
2017-01-28T12:17:41.840Z,11.73
2017-01-28T12:18:41.815Z,11.81
2017-01-28T12:19:42.249Z,11.69
2017-01-28T12:20:42.191Z,11.84
2017-01-28T12:21:41.759Z,12.02
2017-01-28T12:22:41.765Z,12.21
2017-01-28T12:23:42.149Z,12.3
2017-01-28T12:24:41.720Z,12.35
2017-01-28T12:25:41.701Z,12.17
2017-01-28T12:26:41.670Z,12.2
2017-01-28T12:27:42.075Z,12.35
2017-01-28T12:28:41.648Z,12.42
2017-01-28T12:29:42.044Z,12.34
2017-01-28T12:30:41.187Z,12.6
2017-01-28T12:31:41.574Z,12.68
2017-01-28T12:32:41.970Z,12.82
2017-01-28T12:33:41.551Z,12.71
2017-01-28T12:34:41.937Z,12.7
2017-01-28T12:35:41.106Z,12.82
2017-01-28T12:36:41.879Z,13.14
2017-01-28T12:37:41.519Z,13.31
2017-01-28T12:38:41.904Z,13.53
2017-01-28T12:39:41.439Z,13.31
2017-01-28T12:40:41.010Z,13.14
2017-01-28T12:41:41.449Z,13.35
2017-01-28T12:42:41.782Z,13.11
2017-01-28T12:43:41.761Z,13.03
2017-01-28T12:44:41.746Z,13.15
2017-01-28T12:45:41.368Z,12.86
2017-01-28T12:46:41.298Z,12.76
2017-01-28T12:47:40.895Z,12.71
2017-01-28T12:48:41.275Z,12.97
2017-01-28T12:49:41.325Z,12.83
2017-01-28T12:50:41.642Z,12.9
2017-01-28T12:51:41.710Z,12.74
2017-01-28T12:52:41.602Z,12.89
2017-01-28T12:53:41.594Z,12.96
2017-01-28T12:54:41.568Z,13.22
2017-01-28T12:55:41.681Z,13.59
2017-01-28T12:56:41.534Z,13.97
2017-01-28T12:57:41.160Z,14.28
2017-01-28T12:58:40.689Z,14.33
2017-01-28T12:59:41.085Z,14.18
2017-01-28T13:00:41.469Z,14.6
2017-01-28T13:01:41.580Z,15
2017-01-28T13:02:41.481Z,14.82
2017-01-28T13:03:41.559Z,14.77
2017-01-28T13:04:41.398Z,14.85
2017-01-28T13:05:40.595Z,15
2017-01-28T13:06:40.542Z,14.91
2017-01-28T13:07:41.336Z,14.7
2017-01-28T13:08:41.341Z,14.58
2017-01-28T13:09:40.584Z,15.13
2017-01-28T13:10:40.913Z,15.46
2017-01-28T13:11:41.375Z,15.79
2017-01-28T13:12:40.873Z,16.15
2017-01-28T13:13:40.945Z,16.35
2017-01-28T13:14:40.816Z,15.54
2017-01-28T13:15:40.505Z,15.57